Time;durP1;ratioP1;P1;durP2;ratioP2;P2;SDS_P1;SDS_P2;PMS_P1;PMS_P2;Temp;Humidity;BMP_temperature;BMP_pressure;BME280_temperature;BME280_humidity;BME280_pressure;Samples;Min_cycle;Max_cycle;Signal;HPM_P1;HPM_P2
2022/11/10 00:00:19;;;;;;;4.10;1.50;;;;;;;;;;6194092;28;20133;-89
2022/11/10 00:03:39;;;;;;;6.10;1.60;;;;;;;;;;6184371;28;20038;-90
2022/11/10 00:06:59;;;;;;;8.95;1.50;;;;;;;;;;6182593;28;20511;-89
2022/11/10 00:10:19;;;;;;;4.03;1.48;;;;;;;;;;6194825;28;20058;-90
2022/11/10 00:16:59;;;;;;;3.72;1.40;;;;;;;;;;6200966;28;20099;-90
2022/11/10 00:17:20;;;;;;;7.95;2.03;;;;;;;;;;6177822;28;20575;-90
2022/11/10 00:20:41;;;;;;;5.88;1.38;;;;;;;;;;6188050;28;20070;-89
2022/11/10 00:24:02;;;;;;;6.45;1.65;;;;;;;;;;6181106;28;20580;-89
2022/11/10 00:27:23;;;;;;;5.10;1.40;;;;;;;;;;6188453;28;20054;-90
2022/11/10 00:30:43;;;;;;;3.35;1.30;;;;;;;;;;6184433;28;20042;-89
2022/11/10 00:34:09;;;;;;;3.08;1.40;;;;;;;;;;6184035;28;20050;-89
2022/11/10 00:37:29;;;;;;;6.72;1.70;;;;;;;;;;6219602;28;20042;-89
2022/11/10 00:40:50;;;;;;;6.00;1.38;;;;;;;;;;6193830;28;20047;-89
2022/11/10 00:44:10;;;;;;;5.28;1.38;;;;;;;;;;6190170;28;20055;-90
2022/11/10 00:47:30;;;;;;;4.22;1.50;;;;;;;;;;6195259;28;20133;-89
2022/11/10 00:50:51;;;;;;;6.28;1.73;;;;;;;;;;6182821;28;20043;-88
2022/11/10 00:54:11;;;;;;;3.30;1.40;;;;;;;;;;6184795;28;20058;-89
2022/11/10 00:57:31;;;;;;;7.68;1.40;;;;;;;;;;6187282;28;20050;-89
2022/11/10 01:01:00;;;;;;;4.32;1.50;;;;;;;;;;6182508;28;20050;-89
2022/11/10 01:04:21;;;;;;;5.57;1.20;;;;;;;;;;6182400;28;20846;-89
2022/11/10 01:07:41;;;;;;;6.28;1.40;;;;;;;;;;6183342;28;20496;-89
2022/11/10 01:11:08;;;;;;;8.85;1.50;;;;;;;;;;6181305;28;20041;-88
2022/11/10 01:14:28;;;;;;;3.20;1.30;;;;;;;;;;6186404;28;20046;-89
2022/11/10 01:17:49;;;;;;;5.70;1.75;;;;;;;;;;6189468;28;20408;-88
2022/11/10 01:21:09;;;;;;;9.35;2.33;;;;;;;;;;6195126;28;20126;-89
2022/11/10 01:24:30;;;;;;;7.55;2.40;;;;;;;;;;6183826;28;20169;-88
2022/11/10 01:27:50;;;;;;;4.63;2.05;;;;;;;;;;6194855;28;20102;-89
2022/11/10 01:31:16;;;;;;;5.05;2.20;;;;;;;;;;6182599;28;20050;-89
2022/11/10 01:34:36;;;;;;;5.20;1.88;;;;;;;;;;6192143;28;20047;-89
2022/11/10 01:37:57;;;;;;;2.67;1.77;;;;;;;;;;6194403;28;20084;-89
2022/11/10 01:41:17;;;;;;;5.28;1.85;;;;;;;;;;6191212;28;20046;-89
2022/11/10 01:44:40;;;;;;;5.55;1.63;;;;;;;;;;6188091;28;20046;-90
2022/11/10 01:48:04;;;;;;;5.03;1.60;;;;;;;;;;6178320;28;20043;-89
2022/11/10 01:51:53;;;;;;;4.80;1.60;;;;;;;;;;6184341;28;20054;-89
2022/11/10 01:55:14;;;;;;;3.42;1.67;;;;;;;;;;6176335;28;20051;-89
2022/11/10 01:58:39;;;;;;;4.57;1.65;;;;;;;;;;6187103;28;20046;-88
2022/11/10 02:02:14;;;;;;;4.63;1.50;;;;;;;;;;6180481;28;20054;-89
2022/11/10 02:05:35;;;;;;;3.33;2.00;;;;;;;;;;6179092;28;20051;-88
2022/11/10 02:08:57;;;;;;;4.07;1.40;;;;;;;;;;6178129;28;20042;-89
2022/11/10 02:12:35;;;;;;;3.78;1.35;;;;;;;;;;6176979;28;20047;-89
2022/11/10 02:15:56;;;;;;;5.22;1.40;;;;;;;;;;6186085;28;20054;-90
2022/11/10 02:19:23;;;;;;;8.43;2.15;;;;;;;;;;6181604;28;20076;-90
2022/11/10 02:22:44;;;;;;;4.68;2.42;;;;;;;;;;6186029;28;20042;-90
2022/11/10 02:26:06;;;;;;;6.47;2.30;;;;;;;;;;6198062;28;20328;-88
2022/11/10 02:29:26;;;;;;;5.13;2.22;;;;;;;;;;6252680;28;20039;-89
2022/11/10 02:32:47;;;;;;;5.53;2.45;;;;;;;;;;6185309;28;20047;-89
2022/11/10 02:36:08;;;;;;;8.38;2.40;;;;;;;;;;6180130;28;20055;-89
2022/11/10 02:39:28;;;;;;;7.30;2.28;;;;;;;;;;6184111;28;20046;-91
2022/11/10 02:42:48;;;;;;;6.70;2.28;;;;;;;;;;6180213;28;20050;-89
2022/11/10 02:46:09;;;;;;;9.02;2.17;;;;;;;;;;6194377;28;20464;-90
2022/11/10 02:49:29;;;;;;;7.28;2.20;;;;;;;;;;6184205;28;20042;-89
2022/11/10 02:52:49;;;;;;;7.10;2.45;;;;;;;;;;6178480;28;20043;-89
2022/11/10 02:56:10;;;;;;;8.48;2.90;;;;;;;;;;6178128;28;20516;-89
2022/11/10 02:59:31;;;;;;;3.92;2.40;;;;;;;;;;6183522;28;20129;-91
2022/11/10 03:03:00;;;;;;;6.53;2.55;;;;;;;;;;6181045;28;20460;-90
2022/11/10 03:06:21;;;;;;;4.28;2.55;;;;;;;;;;6181300;28;20046;-89
2022/11/10 03:09:42;;;;;;;6.75;2.28;;;;;;;;;;6195798;28;20117;-90
2022/11/10 03:13:02;;;;;;;5.22;2.70;;;;;;;;;;6185318;28;20046;-91
2022/11/10 03:16:23;;;;;;;7.53;2.40;;;;;;;;;;6182070;28;20423;-90
2022/11/10 03:19:43;;;;;;;5.38;2.20;;;;;;;;;;6185291;28;20058;-91
2022/11/10 03:23:04;;;;;;;4.82;2.13;;;;;;;;;;6196131;28;20058;-90
2022/11/10 03:26:25;;;;;;;3.47;1.42;;;;;;;;;;6177567;28;20088;-92
2022/11/10 03:29:45;;;;;;;5.28;2.08;;;;;;;;;;6191139;28;21802;-91
2022/11/10 03:33:06;;;;;;;5.25;2.35;;;;;;;;;;6181365;28;20042;-91
2022/11/10 03:36:26;;;;;;;5.13;2.00;;;;;;;;;;6198889;28;20047;-90
2022/11/10 03:39:47;;;;;;;5.55;2.28;;;;;;;;;;6180917;28;20035;-89
2022/11/10 03:43:07;;;;;;;4.93;2.30;;;;;;;;;;6199816;28;20046;-89
2022/11/10 03:46:28;;;;;;;3.85;1.73;;;;;;;;;;6185203;28;21841;-91
2022/11/10 03:49:49;;;;;;;8.63;4.32;;;;;;;;;;6194627;28;20071;-90
2022/11/10 03:53:09;;;;;;;5.03;3.47;;;;;;;;;;6187521;28;20575;-90
2022/11/10 03:56:31;;;;;;;5.65;3.85;;;;;;;;;;6193801;28;20058;-91
2022/11/10 03:59:51;;;;;;;9.65;4.20;;;;;;;;;;6179676;28;21424;-90
2022/11/10 04:03:12;;;;;;;9.98;6.35;;;;;;;;;;6182222;28;20042;-89
2022/11/10 04:10:11;;;;;;;6.10;3.75;;;;;;;;;;6181995;28;20084;-90
2022/11/10 04:17:11;;;;;;;5.20;2.70;;;;;;;;;;6178430;28;20567;-89
2022/11/10 04:20:31;;;;;;;7.82;5.22;;;;;;;;;;6180398;28;20042;-90
2022/11/10 04:23:52;;;;;;;9.13;4.78;;;;;;;;;;6180664;28;20050;-89
2022/11/10 04:27:12;;;;;;;8.57;4.10;;;;;;;;;;6184768;28;20046;-90
2022/11/10 04:30:33;;;;;;;7.25;4.45;;;;;;;;;;6178456;28;20053;-89
2022/11/10 04:33:54;;;;;;;13.43;6.15;;;;;;;;;;6172459;28;20432;-89
2022/11/10 04:37:17;;;;;;;10.18;5.28;;;;;;;;;;6187150;28;20133;-90
2022/11/10 04:40:39;;;;;;;8.80;4.95;;;;;;;;;;6181410;28;20046;-89
2022/11/10 04:44:00;;;;;;;12.63;6.47;;;;;;;;;;6186925;28;20063;-89
2022/11/10 04:47:21;;;;;;;19.65;8.07;;;;;;;;;;6175101;28;20063;-90
2022/11/10 04:50:43;;;;;;;9.95;5.40;;;;;;;;;;6183518;28;20045;-89
2022/11/10 04:54:07;;;;;;;9.80;4.22;;;;;;;;;;6181070;28;20567;-89
2022/11/10 04:57:27;;;;;;;9.95;3.20;;;;;;;;;;6183678;28;20146;-88
2022/11/10 05:00:47;;;;;;;7.20;3.88;;;;;;;;;;6180179;28;20070;-89
2022/11/10 05:04:08;;;;;;;7.40;3.53;;;;;;;;;;6180732;28;20046;-88
2022/11/10 05:07:28;;;;;;;12.52;3.53;;;;;;;;;;6194516;28;20133;-89
2022/11/10 05:10:49;;;;;;;6.38;3.58;;;;;;;;;;6184332;28;20051;-89
2022/11/10 05:14:09;;;;;;;11.60;2.97;;;;;;;;;;6178342;28;20051;-90
2022/11/10 05:17:30;;;;;;;5.13;3.60;;;;;;;;;;6214814;28;20046;-89
2022/11/10 05:20:52;;;;;;;10.35;4.90;;;;;;;;;;6195624;28;20053;-89
2022/11/10 05:24:12;;;;;;;8.30;3.72;;;;;;;;;;6174853;28;20038;-88
2022/11/10 05:27:33;;;;;;;9.30;3.63;;;;;;;;;;6185163;28;20062;-89
2022/11/10 05:30:53;;;;;;;12.93;4.13;;;;;;;;;;6179043;28;20042;-89
2022/11/10 05:34:14;;;;;;;7.72;3.70;;;;;;;;;;6191502;28;20050;-89
2022/11/10 05:37:34;;;;;;;11.23;4.95;;;;;;;;;;6180523;28;20039;-89
2022/11/10 05:40:54;;;;;;;18.85;12.10;;;;;;;;;;6178909;28;20045;-91
2022/11/10 05:44:14;;;;;;;16.77;9.88;;;;;;;;;;6178944;28;20042;-89
2022/11/10 05:47:36;;;;;;;10.43;4.90;;;;;;;;;;6169152;28;20050;-89
2022/11/10 05:50:56;;;;;;;9.60;4.45;;;;;;;;;;6178545;28;20043;-89
2022/11/10 05:54:16;;;;;;;8.98;5.38;;;;;;;;;;6182728;28;20042;-89
2022/11/10 05:57:36;;;;;;;8.65;4.60;;;;;;;;;;6179187;28;20042;-89
2022/11/10 06:00:57;;;;;;;11.10;5.05;;;;;;;;;;6177417;28;20125;-89
2022/11/10 06:04:17;;;;;;;12.82;6.32;;;;;;;;;;6176836;28;20141;-89
2022/11/10 06:07:38;;;;;;;11.60;5.63;;;;;;;;;;6161071;28;20054;-89
2022/11/10 06:10:58;;;;;;;8.45;4.43;;;;;;;;;;6172574;28;20049;-89
2022/11/10 06:14:19;;;;;;;6.70;2.40;;;;;;;;;;6241608;28;20539;-89
2022/11/10 06:17:39;;;;;;;7.57;3.80;;;;;;;;;;6170612;28;20560;-91
2022/11/10 06:21:05;;;;;;;10.98;4.45;;;;;;;;;;6188805;28;20057;-90
2022/11/10 06:24:32;;;;;;;10.73;4.38;;;;;;;;;;6162442;28;20058;-90
2022/11/10 06:27:55;;;;;;;9.38;4.50;;;;;;;;;;6168525;28;20416;-91
2022/11/10 06:31:16;;;;;;;8.80;4.15;;;;;;;;;;6184091;28;20050;-91
2022/11/10 06:34:37;;;;;;;9.90;4.10;;;;;;;;;;6198366;28;20042;-90
2022/11/10 06:37:58;;;;;;;6.43;3.75;;;;;;;;;;6165635;28;20043;-89
2022/11/10 06:41:20;;;;;;;8.57;3.95;;;;;;;;;;6247359;28;20090;-90
2022/11/10 06:44:44;;;;;;;7.43;4.25;;;;;;;;;;6172019;28;20535;-89
2022/11/10 06:48:10;;;;;;;5.93;3.13;;;;;;;;;;6180999;28;20113;-89
2022/11/10 06:51:30;;;;;;;7.15;2.10;;;;;;;;;;6191731;28;20046;-89
2022/11/10 06:54:50;;;;;;;8.10;2.60;;;;;;;;;;6181104;28;20043;-89
2022/11/10 06:58:11;;;;;;;6.57;2.08;;;;;;;;;;6186839;28;20512;-89
2022/11/10 07:01:31;;;;;;;6.72;2.35;;;;;;;;;;6181212;28;20125;-88
2022/11/10 07:04:51;;;;;;;6.22;1.98;;;;;;;;;;6178276;28;20531;-90
2022/11/10 07:08:17;;;;;;;7.50;2.97;;;;;;;;;;6178422;28;20050;-88
2022/11/10 07:11:37;;;;;;;7.40;2.00;;;;;;;;;;6248661;28;20050;-88
2022/11/10 07:14:57;;;;;;;5.63;1.80;;;;;;;;;;6192211;28;20557;-89
2022/11/10 07:18:18;;;;;;;5.45;1.85;;;;;;;;;;6180110;28;20427;-89
2022/11/10 07:21:40;;;;;;;12.13;6.57;;;;;;;;;;6179040;28;20054;-89
2022/11/10 07:25:00;;;;;;;22.85;13.05;;;;;;;;;;6177885;28;20062;-88
2022/11/10 07:28:21;;;;;;;12.68;7.20;;;;;;;;;;6181843;28;20075;-89
2022/11/10 07:31:47;;;;;;;7.90;4.13;;;;;;;;;;6179759;28;20086;-89
2022/11/10 07:35:07;;;;;;;19.98;7.55;;;;;;;;;;6181290;28;20082;-88
2022/11/10 07:38:28;;;;;;;14.82;8.15;;;;;;;;;;6179200;28;20527;-90
2022/11/10 07:41:50;;;;;;;11.45;6.88;;;;;;;;;;6175650;28;20492;-88
2022/11/10 07:45:12;;;;;;;16.50;9.50;;;;;;;;;;6178943;28;20058;-90
2022/11/10 07:48:32;;;;;;;17.35;9.25;;;;;;;;;;6183123;28;20133;-88
2022/11/10 07:51:52;;;;;;;15.77;7.60;;;;;;;;;;6181887;28;20050;-88
2022/11/10 07:55:12;;;;;;;10.55;4.18;;;;;;;;;;6180904;28;20125;-88
2022/11/10 07:58:34;;;;;;;14.35;6.63;;;;;;;;;;6185840;28;20078;-88
2022/11/10 08:01:54;;;;;;;16.30;7.45;;;;;;;;;;6179691;28;21901;-87
2022/11/10 08:05:14;;;;;;;10.48;6.00;;;;;;;;;;6181470;28;20046;-88
2022/11/10 08:08:34;;;;;;;11.15;3.05;;;;;;;;;;6180853;28;20042;-87
2022/11/10 08:11:54;;;;;;;9.00;2.92;;;;;;;;;;6187093;28;20046;-88
2022/11/10 08:15:18;;;;;;;6.85;3.53;;;;;;;;;;6199678;28;20046;-88
2022/11/10 08:18:42;;;;;;;5.25;3.08;;;;;;;;;;6203056;28;20446;-89
2022/11/10 08:22:07;;;;;;;;;;;;;;;;;;6187536;28;20047;-89
2022/11/10 08:25:32;;;;;;;6.15;2.15;;;;;;;;;;6205121;28;19922;-89
2022/11/10 08:28:55;;;;;;;8.00;2.22;;;;;;;;;;6205813;28;20050;-88
2022/11/10 08:32:15;;;;;;;6.40;2.45;;;;;;;;;;6171609;28;20525;-88
2022/11/10 08:35:38;;;;;;;8.02;2.20;;;;;;;;;;6177749;28;20043;-87
2022/11/10 08:38:58;;;;;;;7.38;2.63;;;;;;;;;;6182518;28;20046;-88
2022/11/10 08:42:20;;;;;;;7.40;2.80;;;;;;;;;;6183494;28;20047;-87
2022/11/10 08:45:42;;;;;;;7.00;3.80;;;;;;;;;;6197864;28;20050;-89
2022/11/10 08:49:12;;;;;;;8.30;2.80;;;;;;;;;;6185296;28;20054;-89
2022/11/10 08:52:33;;;;;;;8.45;2.85;;;;;;;;;;6206785;28;20153;-88
2022/11/10 08:55:57;;;;;;;6.80;2.42;;;;;;;;;;6185682;28;20514;-87
2022/11/10 08:59:17;;;;;;;;;;;;;;;;;;6183760;28;20046;-88
2022/11/10 09:02:38;;;;;;;9.20;2.72;;;;;;;;;;6178821;28;19922;-88
2022/11/10 09:05:58;;;;;;;5.38;2.33;;;;;;;;;;6185289;28;20050;-88
2022/11/10 09:09:18;;;;;;;5.25;2.22;;;;;;;;;;6185208;28;20458;-88
2022/11/10 09:12:42;;;;;;;5.18;2.45;;;;;;;;;;6182185;28;20039;-88
2022/11/10 09:16:04;;;;;;;8.63;2.92;;;;;;;;;;6183907;28;20055;-88
2022/11/10 09:19:24;;;;;;;5.60;2.40;;;;;;;;;;6186009;28;20051;-87
2022/11/10 09:22:44;;;;;;;8.45;2.55;;;;;;;;;;6184477;28;20054;-88
2022/11/10 09:26:06;;;;;;;5.85;2.92;;;;;;;;;;6194091;28;20043;-88
2022/11/10 09:29:26;;;;;;;6.97;2.80;;;;;;;;;;6182573;28;20054;-89
2022/11/10 09:32:52;;;;;;;6.38;2.55;;;;;;;;;;6174314;28;20070;-88
2022/11/10 09:36:12;;;;;;;8.45;2.95;;;;;;;;;;6185231;28;20105;-88
2022/11/10 09:39:33;;;;;;;7.35;3.28;;;;;;;;;;6189067;28;20515;-88
2022/11/10 09:42:56;;;;;;;7.53;3.03;;;;;;;;;;6181150;28;20046;-88
2022/11/10 09:46:23;;;;;;;7.15;2.75;;;;;;;;;;6181344;28;20038;-87
2022/11/10 09:49:48;;;;;;;6.25;3.00;;;;;;;;;;6183166;28;20073;-88
2022/11/10 09:53:15;;;;;;;7.18;2.40;;;;;;;;;;6244776;28;20507;-88
2022/11/10 09:56:37;;;;;;;10.68;3.10;;;;;;;;;;6178993;28;20073;-88
2022/11/10 09:59:58;;;;;;;6.75;2.50;;;;;;;;;;6185949;28;20042;-88
2022/11/10 10:03:23;;;;;;;7.75;2.58;;;;;;;;;;6199196;28;20220;-89
2022/11/10 10:06:57;;;;;;;5.93;2.13;;;;;;;;;;6181425;28;20137;-90
2022/11/10 10:10:39;;;;;;;6.68;2.50;;;;;;;;;;6187972;28;20035;-89
2022/11/10 10:14:08;;;;;;;7.72;3.22;;;;;;;;;;6195031;28;20038;-89
2022/11/10 10:17:37;;;;;;;6.95;2.42;;;;;;;;;;6193189;28;20453;-90
2022/11/10 10:21:10;;;;;;;7.32;2.78;;;;;;;;;;6188233;28;20412;-88
2022/11/10 10:24:38;;;;;;;11.05;2.35;;;;;;;;;;6172290;28;20092;-88
2022/11/10 10:28:27;;;;;;;9.00;2.60;;;;;;;;;;6177710;28;20042;-88
2022/11/10 10:31:49;;;;;;;8.07;1.95;;;;;;;;;;6182591;28;20512;-88
2022/11/10 10:35:14;;;;;;;7.82;2.10;;;;;;;;;;6182232;28;20527;-88
2022/11/10 10:38:38;;;;;;;10.02;2.22;;;;;;;;;;6182706;28;20058;-88
2022/11/10 10:41:59;;;;;;;4.38;2.10;;;;;;;;;;6189710;28;20050;-87
2022/11/10 10:45:22;;;;;;;5.70;1.90;;;;;;;;;;6177735;28;20050;-88
2022/11/10 10:48:43;;;;;;;4.72;1.90;;;;;;;;;;6177614;28;20046;-88
2022/11/10 10:52:06;;;;;;;7.70;2.05;;;;;;;;;;6173011;28;20046;-88
2022/11/10 10:55:28;;;;;;;7.28;1.75;;;;;;;;;;6181693;28;20050;-88
2022/11/10 10:58:53;;;;;;;8.07;2.15;;;;;;;;;;6181975;28;20066;-88
2022/11/10 11:02:25;;;;;;;5.88;1.63;;;;;;;;;;6180963;28;20415;-88
2022/11/10 11:06:06;;;;;;;6.30;1.60;;;;;;;;;;6180547;28;20050;-89
2022/11/10 11:09:29;;;;;;;5.78;2.10;;;;;;;;;;6195368;28;20050;-88
2022/11/10 11:12:49;;;;;;;6.93;1.67;;;;;;;;;;6178701;28;20046;-88
2022/11/10 11:16:11;;;;;;;9.98;2.30;;;;;;;;;;6179147;28;20046;-88
2022/11/10 11:19:35;;;;;;;8.25;2.33;;;;;;;;;;6181586;28;20059;-90
2022/11/10 11:23:18;;;;;;;6.68;1.65;;;;;;;;;;6181203;28;20277;-89
2022/11/10 11:27:00;;;;;;;9.98;3.63;;;;;;;;;;6184926;28;20050;-89
2022/11/10 11:30:43;;;;;;;3.70;2.08;;;;;;;;;;6184373;28;20046;-90
2022/11/10 11:34:31;;;;;;;4.97;1.70;;;;;;;;;;6186933;28;20653;-90
2022/11/10 11:38:29;;;;;;;8.00;1.83;;;;;;;;;;6186940;28;20527;-89
2022/11/10 11:42:00;;;;;;;6.78;1.75;;;;;;;;;;6182335;28;20051;-88
2022/11/10 11:45:43;;;;;;;8.38;1.42;;;;;;;;;;6190683;28;20591;-87
2022/11/10 11:49:33;;;;;;;7.13;1.42;;;;;;;;;;6186689;28;20042;-89
2022/11/10 11:53:31;;;;;;;5.15;1.30;;;;;;;;;;6188803;28;20058;-89
2022/11/10 11:57:09;;;;;;;8.32;1.83;;;;;;;;;;6189777;28;20081;-90
2022/11/10 12:00:41;;;;;;;4.13;1.80;;;;;;;;;;6204029;28;20042;-89
2022/11/10 12:04:32;;;;;;;5.20;1.33;;;;;;;;;;6183177;28;20183;-88
2022/11/10 12:08:28;;;;;;;3.90;1.15;;;;;;;;;;6185683;28;20063;-89
2022/11/10 12:12:23;;;;;;;3.25;1.23;;;;;;;;;;6187859;28;20072;-89
2022/11/10 12:15:49;;;;;;;6.30;1.40;;;;;;;;;;6180669;28;20054;-89
2022/11/10 12:19:37;;;;;;;4.75;1.52;;;;;;;;;;6200534;28;20104;-89
2022/11/10 12:23:07;;;;;;;9.85;1.60;;;;;;;;;;6196789;28;20046;-88
2022/11/10 12:26:45;;;;;;;6.47;1.63;;;;;;;;;;6186079;28;20047;-88
2022/11/10 12:30:15;;;;;;;5.88;1.45;;;;;;;;;;6186863;28;20050;-90
2022/11/10 12:33:54;;;;;;;6.53;1.75;;;;;;;;;;6197619;28;20054;-89
2022/11/10 12:37:27;;;;;;;3.45;1.27;;;;;;;;;;6183965;28;20054;-88
2022/11/10 12:40:50;;;;;;;6.03;1.20;;;;;;;;;;6185060;28;20051;-90
2022/11/10 12:44:38;;;;;;;1.42;0.98;;;;;;;;;;6178913;28;20047;-89
2022/11/10 12:48:01;;;;;;;4.97;1.20;;;;;;;;;;6187222;28;20531;-90
2022/11/10 12:51:32;;;;;;;5.68;1.17;;;;;;;;;;6186605;28;20412;-90
2022/11/10 12:54:52;;;;;;;4.47;1.23;;;;;;;;;;6189540;28;20054;-90
2022/11/10 12:58:13;;;;;;;5.38;1.63;;;;;;;;;;6186584;28;20046;-89
2022/11/10 13:01:42;;;;;;;6.13;1.00;;;;;;;;;;6187606;28;20050;-90
2022/11/10 13:05:23;;;;;;;7.85;2.00;;;;;;;;;;6229744;28;20141;-90
2022/11/10 13:08:45;;;;;;;4.55;1.20;;;;;;;;;;6183329;28;20055;-89
2022/11/10 13:12:09;;;;;;;4.60;1.45;;;;;;;;;;6204454;28;20146;-90
2022/11/10 13:15:38;;;;;;;3.80;1.45;;;;;;;;;;6194193;28;20046;-90
2022/11/10 13:18:58;;;;;;;5.85;1.40;;;;;;;;;;6187938;28;20039;-90
2022/11/10 13:22:43;;;;;;;7.07;1.30;;;;;;;;;;6187832;28;20050;-90
2022/11/10 13:26:10;;;;;;;4.47;1.10;;;;;;;;;;6157087;28;20076;-89
2022/11/10 13:29:36;;;;;;;3.05;1.17;;;;;;;;;;6185325;28;20042;-89
2022/11/10 13:33:36;;;;;;;5.05;1.42;;;;;;;;;;6180467;28;20038;-89
2022/11/10 13:36:57;;;;;;;6.22;1.55;;;;;;;;;;6179940;28;20058;-89
2022/11/10 13:40:23;;;;;;;3.97;1.38;;;;;;;;;;6180664;28;20525;-89
2022/11/10 13:43:55;;;;;;;4.93;1.10;;;;;;;;;;6206357;28;20072;-89
2022/11/10 13:47:36;;;;;;;4.25;1.23;;;;;;;;;;6191360;28;20035;-88
2022/11/10 13:51:22;;;;;;;3.03;1.10;;;;;;;;;;6189829;28;20157;-90
2022/11/10 13:55:06;;;;;;;8.80;1.65;;;;;;;;;;6181102;28;20507;-89
2022/11/10 13:58:44;;;;;;;8.45;1.35;;;;;;;;;;6188610;28;20506;-88
2022/11/10 14:02:33;;;;;;;3.45;1.30;;;;;;;;;;6181801;28;20030;-89
2022/11/10 14:06:03;;;;;;;5.07;1.40;;;;;;;;;;6183887;28;20042;-89
2022/11/10 14:09:38;;;;;;;4.57;1.65;;;;;;;;;;6182028;28;20050;-88
2022/11/10 14:13:05;;;;;;;4.95;1.17;;;;;;;;;;6184512;28;20046;-89
2022/11/10 14:16:30;;;;;;;4.40;1.20;;;;;;;;;;6196649;28;20049;-90
2022/11/10 14:19:53;;;;;;;5.00;1.27;;;;;;;;;;6184255;28;20050;-90
2022/11/10 14:23:51;;;;;;;4.93;1.30;;;;;;;;;;6178321;28;20043;-91
2022/11/10 14:27:19;;;;;;;6.05;1.40;;;;;;;;;;6197136;28;20121;-89
2022/11/10 14:30:39;;;;;;;5.97;1.15;;;;;;;;;;6187182;28;20050;-89
2022/11/10 14:34:00;;;;;;;5.68;1.10;;;;;;;;;;6189879;28;20074;-90
2022/11/10 14:37:23;;;;;;;4.22;1.23;;;;;;;;;;6186884;28;20050;-90
2022/11/10 14:40:43;;;;;;;3.85;1.10;;;;;;;;;;6197502;28;20042;-89
2022/11/10 14:44:12;;;;;;;9.80;1.70;;;;;;;;;;6172798;28;20090;-88
2022/11/10 14:47:32;;;;;;;3.08;1.30;;;;;;;;;;6173244;28;20557;-88
2022/11/10 14:50:53;;;;;;;4.45;1.33;;;;;;;;;;6184337;28;20037;-90
2022/11/10 14:54:21;;;;;;;4.03;1.00;;;;;;;;;;6186208;28;20046;-88
2022/11/10 14:57:46;;;;;;;5.05;1.20;;;;;;;;;;6187981;28;20042;-88
2022/11/10 15:01:22;;;;;;;4.75;1.23;;;;;;;;;;6190807;28;20050;-89
2022/11/10 15:04:43;;;;;;;6.25;1.33;;;;;;;;;;6181760;28;20058;-89
2022/11/10 15:08:05;;;;;;;2.47;1.20;;;;;;;;;;6195357;28;20047;-89
2022/11/10 15:11:38;;;;;;;4.30;1.05;;;;;;;;;;6184290;28;20070;-90
2022/11/10 15:14:59;;;;;;;3.92;1.10;;;;;;;;;;6183495;28;20046;-89
2022/11/10 15:18:25;;;;;;;6.40;1.40;;;;;;;;;;6216646;28;20043;-89
2022/11/10 15:21:46;;;;;;;3.03;1.20;;;;;;;;;;6179597;28;20042;-90
2022/11/10 15:25:14;;;;;;;3.08;1.23;;;;;;;;;;6180288;28;20058;-91
2022/11/10 15:28:35;;;;;;;3.53;1.40;;;;;;;;;;6177828;28;20050;-89
2022/11/10 15:31:55;;;;;;;3.17;1.30;;;;;;;;;;6193589;28;20051;-89
2022/11/10 15:35:21;;;;;;;5.10;1.48;;;;;;;;;;6175479;28;20105;-89
2022/11/10 15:38:41;;;;;;;8.35;3.13;;;;;;;;;;6181589;28;20038;-89
2022/11/10 15:42:12;;;;;;;7.40;2.38;;;;;;;;;;6196037;28;20541;-89
2022/11/10 15:45:32;;;;;;;5.88;2.15;;;;;;;;;;6178291;28;20154;-88
2022/11/10 15:48:52;;;;;;;6.63;3.30;;;;;;;;;;6182657;28;20050;-88
2022/11/10 15:52:16;;;;;;;4.65;2.55;;;;;;;;;;6184454;28;20051;-88
2022/11/10 15:55:36;;;;;;;5.78;2.47;;;;;;;;;;6179621;28;20416;-88
2022/11/10 15:58:57;;;;;;;4.57;2.50;;;;;;;;;;6175555;28;20042;-88
2022/11/10 16:02:23;;;;;;;12.23;3.05;;;;;;;;;;6180503;28;20043;-88
2022/11/10 16:05:47;;;;;;;9.43;2.55;;;;;;;;;;6176601;28;20043;-88
2022/11/10 16:09:10;;;;;;;7.40;2.78;;;;;;;;;;6177351;28;20054;-88
2022/11/10 16:12:31;;;;;;;5.50;1.73;;;;;;;;;;6180749;28;20050;-88
2022/11/10 16:15:52;;;;;;;5.53;2.75;;;;;;;;;;6180082;28;20492;-88
2022/11/10 16:19:12;;;;;;;4.47;1.88;;;;;;;;;;6181960;28;20050;-88
2022/11/10 16:22:32;;;;;;;5.82;2.33;;;;;;;;;;6184710;28;20043;-88
2022/11/10 16:25:55;;;;;;;5.75;2.00;;;;;;;;;;6180100;28;20653;-89
2022/11/10 16:29:17;;;;;;;7.85;2.67;;;;;;;;;;6192530;28;20062;-88
2022/11/10 16:32:38;;;;;;;6.03;1.98;;;;;;;;;;6193047;28;20050;-89
2022/11/10 16:35:58;;;;;;;7.60;1.80;;;;;;;;;;6174849;28;20050;-89
2022/11/10 16:39:19;;;;;;;5.57;1.95;;;;;;;;;;6180513;28;20038;-88
2022/11/10 16:42:40;;;;;;;4.78;1.67;;;;;;;;;;6181822;28;20050;-88
2022/11/10 16:46:04;;;;;;;10.00;4.20;;;;;;;;;;6181111;28;20047;-88
2022/11/10 16:49:32;;;;;;;10.50;5.93;;;;;;;;;;6179103;28;20039;-89
2022/11/10 16:52:54;;;;;;;8.25;4.68;;;;;;;;;;6177080;28;20060;-88
2022/11/10 16:56:15;;;;;;;9.88;4.45;;;;;;;;;;6174510;28;20508;-88
2022/11/10 16:59:35;;;;;;;14.38;5.90;;;;;;;;;;6190537;28;20053;-88
2022/11/10 17:03:24;;;;;;;11.88;6.65;;;;;;;;;;6178285;28;20050;-88
2022/11/10 17:06:45;;;;;;;14.13;6.25;;;;;;;;;;6177401;28;20138;-88
2022/11/10 17:10:12;;;;;;;19.33;7.72;;;;;;;;;;6179176;28;20137;-89
2022/11/10 17:13:32;;;;;;;16.27;7.00;;;;;;;;;;6174927;28;20042;-88
2022/11/10 17:16:52;;;;;;;17.42;9.27;;;;;;;;;;6177457;28;20046;-89
2022/11/10 17:20:20;;;;;;;17.42;9.13;;;;;;;;;;6181750;28;20053;-88
2022/11/10 17:23:41;;;;;;;23.13;11.50;;;;;;;;;;6181364;28;20046;-88
2022/11/10 17:27:01;;;;;;;36.80;17.77;;;;;;;;;;6193311;28;20043;-89
2022/11/10 17:30:23;;;;;;;38.45;17.45;;;;;;;;;;6180999;28;20039;-88
2022/11/10 17:33:44;;;;;;;44.92;20.55;;;;;;;;;;6176189;28;20046;-89
2022/11/10 17:37:05;;;;;;;36.67;18.60;;;;;;;;;;6177629;28;20587;-88
2022/11/10 17:40:27;;;;;;;23.55;12.75;;;;;;;;;;6177764;28;20054;-90
2022/11/10 17:43:48;;;;;;;20.30;10.32;;;;;;;;;;6185785;28;20516;-88
2022/11/10 17:47:08;;;;;;;22.55;12.57;;;;;;;;;;6179533;28;20054;-89
2022/11/10 17:50:30;;;;;;;22.88;12.75;;;;;;;;;;6173038;28;20050;-88
2022/11/10 17:53:52;;;;;;;19.50;11.38;;;;;;;;;;6187235;28;20054;-89
2022/11/10 17:57:13;;;;;;;35.75;16.95;;;;;;;;;;6176530;28;20370;-89
2022/11/10 18:00:33;;;;;;;146.45;64.38;;;;;;;;;;6180789;28;20501;-88
2022/11/10 18:03:53;;;;;;;71.82;39.17;;;;;;;;;;6169511;28;20492;-90
2022/11/10 18:07:13;;;;;;;56.15;22.40;;;;;;;;;;6181284;28;20070;-88
2022/11/10 18:10:33;;;;;;;28.60;12.77;;;;;;;;;;6181285;28;20054;-89
2022/11/10 18:13:54;;;;;;;21.50;12.93;;;;;;;;;;6182532;28;20042;-90
2022/11/10 18:17:14;;;;;;;18.88;10.95;;;;;;;;;;6193986;28;20046;-88
2022/11/10 18:20:35;;;;;;;21.52;11.25;;;;;;;;;;6196661;28;20055;-88
2022/11/10 18:23:55;;;;;;;21.15;10.75;;;;;;;;;;6172478;28;20034;-91
2022/11/10 18:27:15;;;;;;;37.15;19.30;;;;;;;;;;6179428;28;20718;-88
2022/11/10 18:30:36;;;;;;;18.10;8.68;;;;;;;;;;6177063;28;20046;-89
2022/11/10 18:33:57;;;;;;;26.55;14.75;;;;;;;;;;6169195;28;20480;-89
2022/11/10 18:37:19;;;;;;;37.15;14.02;;;;;;;;;;6177142;28;20461;-90
2022/11/10 18:40:41;;;;;;;18.48;9.32;;;;;;;;;;6180860;28;20054;-90
2022/11/10 18:44:03;;;;;;;18.75;8.35;;;;;;;;;;6177063;28;20050;-88
2022/11/10 18:47:26;;;;;;;30.50;14.23;;;;;;;;;;6172478;28;20470;-90
2022/11/10 18:50:47;;;;;;;26.38;13.48;;;;;;;;;;6175992;28;20047;-89
2022/11/10 18:54:08;;;;;;;27.98;12.60;;;;;;;;;;6174160;28;20453;-89
2022/11/10 18:57:28;;;;;;;22.67;12.93;;;;;;;;;;6168225;28;20141;-89
2022/11/10 19:00:48;;;;;;;31.25;16.55;;;;;;;;;;6178500;28;20050;-89
2022/11/10 19:04:10;;;;;;;30.52;15.63;;;;;;;;;;6178527;28;20058;-89
2022/11/10 19:07:30;;;;;;;23.67;13.75;;;;;;;;;;6183009;28;20546;-89
2022/11/10 19:10:51;;;;;;;25.45;13.10;;;;;;;;;;6183746;28;20042;-88
2022/11/10 19:14:12;;;;;;;22.67;13.10;;;;;;;;;;6182825;28;20057;-89
2022/11/10 19:17:32;;;;;;;24.05;14.32;;;;;;;;;;6190834;28;20042;-89
2022/11/10 19:20:52;;;;;;;38.35;19.85;;;;;;;;;;6173961;28;20046;-88
2022/11/10 19:24:13;;;;;;;24.85;15.20;;;;;;;;;;6179665;28;20043;-89
2022/11/10 19:27:46;;;;;;;25.27;14.57;;;;;;;;;;6179960;28;20110;-88
2022/11/10 19:31:12;;;;;;;18.92;9.40;;;;;;;;;;6189547;28;20060;-89
2022/11/10 19:34:33;;;;;;;23.98;12.77;;;;;;;;;;6175965;28;20046;-89
2022/11/10 19:37:53;;;;;;;25.08;14.20;;;;;;;;;;6177330;28;20133;-89
2022/11/10 19:41:18;;;;;;;24.60;16.90;;;;;;;;;;6182180;28;20428;-89
2022/11/10 19:44:38;;;;;;;26.90;14.65;;;;;;;;;;6166234;28;20043;-91
2022/11/10 19:47:59;;;;;;;20.20;11.25;;;;;;;;;;6180823;28;20043;-90
2022/11/10 19:51:21;;;;;;;20.17;12.15;;;;;;;;;;6171405;28;20046;-90
2022/11/10 19:54:42;;;;;;;21.88;11.85;;;;;;;;;;6209767;28;20042;-90
2022/11/10 19:58:02;;;;;;;22.23;11.10;;;;;;;;;;6191679;28;20058;-89
2022/11/10 20:01:23;;;;;;;17.35;9.30;;;;;;;;;;6194077;28;20074;-90
2022/11/10 20:08:21;;;;;;;26.00;17.10;;;;;;;;;;6180565;28;20058;-90
2022/11/10 20:11:43;;;;;;;31.20;16.25;;;;;;;;;;6179348;28;20042;-90
2022/11/10 20:15:04;;;;;;;21.92;10.70;;;;;;;;;;6181475;28;20046;-89
2022/11/10 20:18:24;;;;;;;21.13;11.57;;;;;;;;;;6180144;28;20050;-89
2022/11/10 20:21:44;;;;;;;28.10;12.27;;;;;;;;;;6179419;28;21617;-90
2022/11/10 20:25:05;;;;;;;19.13;9.80;;;;;;;;;;6188344;28;20047;-88
2022/11/10 20:28:25;;;;;;;23.63;12.70;;;;;;;;;;6181607;28;20054;-88